Winganon, Oklahoma
Current Conditions -  °F | °C
As of 9:15 PM on Saturday 20 Dec 2014 (Local Time) from KGCM Reporting Station
Scattered Clouds Scattered Clouds  
Wind Chill: 38°   Ceiling: Unl
Heat Index: 41°   Visibility: 7mi
Dew Point: 37°   Wind: 5mph
Humidity: 87%   Direction: 240°WSW
Pressure: 30.22"   Gusts: NA
Location:  36.5486°N, 95.4793°W
Report Text: KGCM 210315Z AUTO 24004KT 7SM SCT020 SCT090 05/03 A3022 RMK AO2
Loading
Personal Weather Stations






























Interactive Weather Map New forecast layout! Learn more

10-Day Weather Forecast

Advertisements
Track Severe Weather on mobile